sensor_id;sensor_type;location;lat;lon;timestamp;pressure;altitude;pressure_sealevel;temperature;humidity
13478;BME280;12598;62.382;17.344;2023-12-07T00:00:50;102584.13;;;11.71;16.55
13478;BME280;12598;62.382;17.344;2023-12-07T00:01:52;102561.59;;;11.61;16.06
13478;BME280;12598;62.382;17.344;2023-12-07T00:02:54;102590.09;;;11.76;16.28
13478;BME280;12598;62.382;17.344;2023-12-07T00:03:55;102583.03;;;11.77;16.58
13478;BME280;12598;62.382;17.344;2023-12-07T00:04:57;102596.28;;;11.77;16.58
13478;BME280;12598;62.382;17.344;2023-12-07T00:05:59;102591.16;;;11.72;16.40
13478;BME280;12598;62.382;17.344;2023-12-07T00:07:01;102591.16;;;11.72;16.13
13478;BME280;12598;62.382;17.344;2023-12-07T00:08:03;102591.03;;;11.75;16.75
13478;BME280;12598;62.382;17.344;2023-12-07T00:09:05;102583.47;;;11.66;16.26
13478;BME280;12598;62.382;17.344;2023-12-07T00:10:07;102584.25;;;11.68;16.43
13478;BME280;12598;62.382;17.344;2023-12-07T00:11:09;102589.31;;;11.74;16.21
13478;BME280;12598;62.382;17.344;2023-12-07T00:12:11;102585.84;;;11.72;16.71
13478;BME280;12598;62.382;17.344;2023-12-07T00:13:13;102595.53;;;11.73;16.61
13478;BME280;12598;62.382;17.344;2023-12-07T00:14:14;102591.16;;;11.72;16.04
13478;BME280;12598;62.382;17.344;2023-12-07T00:15:16;102594.69;;;11.73;16.26
13478;BME280;12598;62.382;17.344;2023-12-07T00:16:18;102592.09;;;11.71;16.27
13478;BME280;12598;62.382;17.344;2023-12-07T00:17:20;102589.56;;;11.68;16.11
13478;BME280;12598;62.382;17.344;2023-12-07T00:18:22;102592.97;;;11.72;16.03
13478;BME280;12598;62.382;17.344;2023-12-07T00:19:24;102596.47;;;11.72;16.71
13478;BME280;12598;62.382;17.344;2023-12-07T00:20:26;102595.66;;;11.70;16.24
13478;BME280;12598;62.382;17.344;2023-12-07T00:21:27;102598.44;;;11.67;15.99
13478;BME280;12598;62.382;17.344;2023-12-07T00:22:30;102589.59;;;11.67;16.20
13478;BME280;12598;62.382;17.344;2023-12-07T00:23:31;102596.59;;;11.69;15.87
13478;BME280;12598;62.382;17.344;2023-12-07T00:24:33;102596.59;;;11.69;16.29
13478;BME280;12598;62.382;17.344;2023-12-07T00:25:35;102588.88;;;11.63;16.39
13478;BME280;12598;62.382;17.344;2023-12-07T00:26:37;102600.16;;;11.68;15.91
13478;BME280;12598;62.382;17.344;2023-12-07T00:27:39;102603.72;;;11.67;16.06
13478;BME280;12598;62.382;17.344;2023-12-07T00:28:41;102596.72;;;11.66;16.36
13478;BME280;12598;62.382;17.344;2023-12-07T00:29:43;102604.56;;;11.68;16.64
13478;BME280;12598;62.382;17.344;2023-12-07T00:30:45;102599.34;;;11.66;16.62
13478;BME280;12598;62.382;17.344;2023-12-07T00:31:46;102604.69;;;11.65;16.32
13478;BME280;12598;62.382;17.344;2023-12-07T00:32:48;102600.28;;;11.65;15.97
13478;BME280;12598;62.382;17.344;2023-12-07T00:33:50;102592.50;;;11.61;16.04
13478;BME280;12598;62.382;17.344;2023-12-07T00:34:53;102586.25;;;11.63;16.48
13478;BME280;12598;62.382;17.344;2023-12-07T00:35:55;102591.53;;;11.63;16.44
13478;BME280;12598;62.382;17.344;2023-12-07T00:36:56;102590.66;;;11.63;15.96
13478;BME280;12598;62.382;17.344;2023-12-07T00:37:58;102588.34;;;11.55;16.19
13478;BME280;12598;62.382;17.344;2023-12-07T00:39:00;102579.47;;;11.55;16.41
13478;BME280;12598;62.382;17.344;2023-12-07T00:40:02;102599.53;;;11.62;16.73
13478;BME280;12598;62.382;17.344;2023-12-07T00:41:05;102598.59;;;11.63;16.40
13478;BME280;12598;62.382;17.344;2023-12-07T00:42:07;102604.84;;;11.62;16.22
13478;BME280;12598;62.382;17.344;2023-12-07T00:43:09;102605.75;;;11.61;16.26
13478;BME280;12598;62.382;17.344;2023-12-07T00:44:10;102594.44;;;11.57;16.33
13478;BME280;12598;62.382;17.344;2023-12-07T00:45:12;102604.03;;;11.60;16.54
13478;BME280;12598;62.382;17.344;2023-12-07T00:46:14;102601.38;;;11.60;16.33
13478;BME280;12598;62.382;17.344;2023-12-07T00:47:16;102601.47;;;11.58;16.65
13478;BME280;12598;62.382;17.344;2023-12-07T00:48:18;102604.13;;;11.58;16.55
13478;BME280;12598;62.382;17.344;2023-12-07T00:49:20;102596.44;;;11.51;16.21
13478;BME280;12598;62.382;17.344;2023-12-07T00:50:22;102609.47;;;11.57;16.17
13478;BME280;12598;62.382;17.344;2023-12-07T00:51:23;102588.56;;;11.49;16.35
13478;BME280;12598;62.382;17.344;2023-12-07T00:52:26;102611.25;;;11.56;16.05
13478;BME280;12598;62.382;17.344;2023-12-07T00:53:29;102570.44;;;11.39;16.46
13478;BME280;12598;62.382;17.344;2023-12-07T00:54:30;102605.97;;;11.56;16.28
13478;BME280;12598;62.382;17.344;2023-12-07T00:55:32;102590.38;;;11.47;16.34
13478;BME280;12598;62.382;17.344;2023-12-07T00:56:34;102586.00;;;11.46;16.42
13478;BME280;12598;62.382;17.344;2023-12-07T00:57:36;102599.03;;;11.52;16.32
13478;BME280;12598;62.382;17.344;2023-12-07T00:58:38;102590.16;;;11.53;16.33
13478;BME280;12598;62.382;17.344;2023-12-07T00:59:40;102592.81;;;11.53;16.75
13478;BME280;12598;62.382;17.344;2023-12-07T01:00:42;102595.47;;;11.53;16.63
13478;BME280;12598;62.382;17.344;2023-12-07T01:01:44;102586.88;;;11.47;16.51
13478;BME280;12598;62.382;17.344;2023-12-07T01:02:46;102579.91;;;11.44;16.55
13478;BME280;12598;62.382;17.344;2023-12-07T01:03:48;102592.13;;;11.48;16.58
13478;BME280;12598;62.382;17.344;2023-12-07T01:04:49;102593.94;;;11.46;16.37
13478;BME280;12598;62.382;17.344;2023-12-07T01:05:52;102602.59;;;11.51;16.24
13478;BME280;12598;62.382;17.344;2023-12-07T01:06:54;102603.44;;;11.52;15.92
13478;BME280;12598;62.382;17.344;2023-12-07T01:07:55;102593.94;;;11.46;16.37
13478;BME280;12598;62.382;17.344;2023-12-07T01:08:57;102601.84;;;11.48;16.38
13478;BME280;12598;62.382;17.344;2023-12-07T01:09:59;102609.63;;;11.52;16.30
13478;BME280;12598;62.382;17.344;2023-12-07T01:11:01;102611.34;;;11.53;16.52
13478;BME280;12598;62.382;17.344;2023-12-07T01:12:03;102620.22;;;11.52;16.03
13478;BME280;12598;62.382;17.344;2023-12-07T01:13:05;102614.91;;;11.52;16.65
13478;BME280;12598;62.382;17.344;2023-12-07T01:14:07;102631.66;;;11.53;16.67
13478;BME280;12598;62.382;17.344;2023-12-07T01:15:09;102622.16;;;11.47;16.23
13478;BME280;12598;62.382;17.344;2023-12-07T01:16:11;102634.28;;;11.54;16.62
13478;BME280;12598;62.382;17.344;2023-12-07T01:17:13;102640.50;;;11.53;16.34
13478;BME280;12598;62.382;17.344;2023-12-07T01:18:15;102637.84;;;11.53;16.42
13478;BME280;12598;62.382;17.344;2023-12-07T01:19:17;102630.88;;;11.51;16.14
13478;BME280;12598;62.382;17.344;2023-12-07T01:20:19;102628.97;;;11.54;16.41
13478;BME280;12598;62.382;17.344;2023-12-07T01:21:21;102628.06;;;11.55;16.70
13478;BME280;12598;62.382;17.344;2023-12-07T01:22:23;102623.66;;;11.54;16.48
13478;BME280;12598;62.382;17.344;2023-12-07T01:23:25;102623.66;;;11.54;16.33
13478;BME280;12598;62.382;17.344;2023-12-07T01:24:27;102624.66;;;11.52;16.56
13478;BME280;12598;62.382;17.344;2023-12-07T01:25:31;102627.16;;;11.56;16.13
13478;BME280;12598;62.382;17.344;2023-12-07T01:26:33;102631.56;;;11.56;16.07
13478;BME280;12598;62.382;17.344;2023-12-07T01:27:35;102628.06;;;11.55;16.09
13478;BME280;12598;62.382;17.344;2023-12-07T01:28:37;102625.44;;;11.55;16.42
13478;BME280;12598;62.382;17.344;2023-12-07T01:29:39;102628.06;;;11.55;16.15
13478;BME280;12598;62.382;17.344;2023-12-07T01:30:41;102617.69;;;11.49;16.28
13478;BME280;12598;62.382;17.344;2023-12-07T01:31:43;102630.81;;;11.52;16.57
13478;BME280;12598;62.382;17.344;2023-12-07T01:32:45;102632.44;;;11.56;16.75
13478;BME280;12598;62.382;17.344;2023-12-07T01:33:47;102633.38;;;11.55;16.72
13478;BME280;12598;62.382;17.344;2023-12-07T01:34:49;102624.75;;;11.49;16.30
13478;BME280;12598;62.382;17.344;2023-12-07T01:35:51;102634.28;;;11.54;16.68
13478;BME280;12598;62.382;17.344;2023-12-07T01:36:53;102642.16;;;11.56;16.08
13478;BME280;12598;62.382;17.344;2023-12-07T01:37:55;102641.31;;;11.55;16.49
13478;BME280;12598;62.382;17.344;2023-12-07T01:38:56;102636.88;;;11.56;16.18
13478;BME280;12598;62.382;17.344;2023-12-07T01:39:58;102625.66;;;11.49;16.56
13478;BME280;12598;62.382;17.344;2023-12-07T01:41:00;102625.44;;;11.55;16.72
13478;BME280;12598;62.382;17.344;2023-12-07T01:42:02;102625.44;;;11.55;16.13
13478;BME280;12598;62.382;17.344;2023-12-07T01:43:04;102630.72;;;11.55;16.10
13478;BME280;12598;62.382;17.344;2023-12-07T01:44:06;102615.72;;;11.54;16.00
13478;BME280;12598;62.382;17.344;2023-12-07T01:45:08;102616.78;;;11.50;16.46
13478;BME280;12598;62.382;17.344;2023-12-07T01:46:10;102619.47;;;11.49;16.26
13478;BME280;12598;62.382;17.344;2023-12-07T01:47:12;102610.69;;;11.48;16.75
13478;BME280;12598;62.382;17.344;2023-12-07T01:48:14;102618.41;;;11.53;16.82
13478;BME280;12598;62.382;17.344;2023-12-07T01:49:16;102615.03;;;11.49;16.42
13478;BME280;12598;62.382;17.344;2023-12-07T01:50:19;102624.59;;;11.53;16.85
13478;BME280;12598;62.382;17.344;2023-12-07T01:51:26;102621.88;;;11.55;16.49
13478;BME280;12598;62.382;17.344;2023-12-07T01:52:29;102631.78;;;11.50;16.35
13478;BME280;12598;62.382;17.344;2023-12-07T01:53:31;102632.47;;;11.55;16.28
13478;BME280;12598;62.382;17.344;2023-12-07T01:54:33;102626.38;;;11.53;16.44
13478;BME280;12598;62.382;17.344;2023-12-07T01:55:36;102632.53;;;11.53;16.30
13478;BME280;12598;62.382;17.344;2023-12-07T01:56:38;102629.00;;;11.53;16.75
13478;BME280;12598;62.382;17.344;2023-12-07T01:57:41;102609.97;;;11.43;16.64
13478;BME280;12598;62.382;17.344;2023-12-07T01:58:44;102625.53;;;11.52;16.48
13478;BME280;12598;62.382;17.344;2023-12-07T01:59:48;102635.25;;;11.52;16.82
13478;BME280;12598;62.382;17.344;2023-12-07T02:00:50;102627.28;;;11.52;16.21
13478;BME280;12598;62.382;17.344;2023-12-07T02:01:52;102631.66;;;11.53;16.88
13478;BME280;12598;62.382;17.344;2023-12-07T02:02:54;102631.75;;;11.51;16.67
13478;BME280;12598;62.382;17.344;2023-12-07T02:03:56;102628.34;;;11.48;16.82
13478;BME280;12598;62.382;17.344;2023-12-07T02:04:58;102626.50;;;11.50;16.31
13478;BME280;12598;62.382;17.344;2023-12-07T02:06:01;102624.75;;;11.49;16.72
13478;BME280;12598;62.382;17.344;2023-12-07T02:07:03;102633.50;;;11.51;16.56
13478;BME280;12598;62.382;17.344;2023-12-07T02:08:06;102629.09;;;11.51;16.14
13478;BME280;12598;62.382;17.344;2023-12-07T02:09:07;102629.09;;;11.51;16.82
13478;BME280;12598;62.382;17.344;2023-12-07T02:10:10;102628.16;;;11.52;16.85
13478;BME280;12598;62.382;17.344;2023-12-07T02:11:12;102629.94;;;11.52;16.32
13478;BME280;12598;62.382;17.344;2023-12-07T02:12:14;102629.09;;;11.51;16.62
13478;BME280;12598;62.382;17.344;2023-12-07T02:13:16;102623.16;;;11.45;16.53
13478;BME280;12598;62.382;17.344;2023-12-07T02:14:19;102615.34;;;11.42;16.49
13478;BME280;12598;62.382;17.344;2023-12-07T02:15:21;102636.16;;;11.51;16.94
13478;BME280;12598;62.382;17.344;2023-12-07T02:16:43;102623.00;;;11.49;16.66
13478;BME280;12598;62.382;17.344;2023-12-07T02:20:59;102633.84;;;11.65;16.59
13478;BME280;12598;62.382;17.344;2023-12-07T02:22:10;102632.22;;;11.62;16.27
13478;BME280;12598;62.382;17.344;2023-12-07T02:23:16;102642.03;;;11.59;16.70
13478;BME280;12598;62.382;17.344;2023-12-07T02:24:37;102630.75;;;11.54;16.35
13478;BME280;12598;62.382;17.344;2023-12-07T02:27:05;102641.13;;;11.60;16.40
13478;BME280;12598;62.382;17.344;2023-12-07T02:28:07;102642.16;;;11.56;16.47
13478;BME280;12598;62.382;17.344;2023-12-07T02:29:09;102643.13;;;11.53;16.19
13478;BME280;12598;62.382;17.344;2023-12-07T02:30:11;102639.69;;;11.51;16.93
13478;BME280;12598;62.382;17.344;2023-12-07T02:31:13;102642.38;;;11.50;16.32
13478;BME280;12598;62.382;17.344;2023-12-07T02:32:15;102644.19;;;11.49;16.25
13478;BME280;12598;62.382;17.344;2023-12-07T02:33:17;102639.81;;;11.48;16.83
13478;BME280;12598;62.382;17.344;2023-12-07T02:34:19;102645.09;;;11.48;16.30
13478;BME280;12598;62.382;17.344;2023-12-07T02:35:21;102645.09;;;11.48;16.60
13478;BME280;12598;62.382;17.344;2023-12-07T02:36:24;102633.75;;;11.45;16.48
13478;BME280;12598;62.382;17.344;2023-12-07T02:37:33;102639.81;;;11.48;16.67
13478;BME280;12598;62.382;17.344;2023-12-07T02:38:39;102648.56;;;11.50;16.89
13478;BME280;12598;62.382;17.344;2023-12-07T02:39:42;102642.38;;;11.50;16.84
13478;BME280;12598;62.382;17.344;2023-12-07T02:40:46;102639.81;;;11.48;16.24
13478;BME280;12598;62.382;17.344;2023-12-07T02:41:49;102639.84;;;11.47;16.33
13478;BME280;12598;62.382;17.344;2023-12-07T02:42:56;102634.72;;;11.42;16.56
13478;BME280;12598;62.382;17.344;2023-12-07T02:43:59;102654.69;;;11.51;16.27
13478;BME280;12598;62.382;17.344;2023-12-07T02:45:03;102653.84;;;11.50;16.71
13478;BME280;12598;62.382;17.344;2023-12-07T02:46:05;102647.69;;;11.50;16.18
13478;BME280;12598;62.382;17.344;2023-12-07T02:47:07;102657.44;;;11.49;16.71
13478;BME280;12598;62.382;17.344;2023-12-07T02:48:08;102650.41;;;11.48;16.32
13478;BME280;12598;62.382;17.344;2023-12-07T02:49:10;102660.06;;;11.49;16.95
13478;BME280;12598;62.382;17.344;2023-12-07T02:50:12;102660.13;;;11.48;16.30
13478;BME280;12598;62.382;17.344;2023-12-07T02:51:15;102658.34;;;11.48;16.49
13478;BME280;12598;62.382;17.344;2023-12-07T02:52:16;102647.13;;;11.42;16.60
13478;BME280;12598;62.382;17.344;2023-12-07T02:53:18;102661.84;;;11.49;16.89
13478;BME280;12598;62.382;17.344;2023-12-07T02:54:20;102654.16;;;11.43;16.93
13478;BME280;12598;62.382;17.344;2023-12-07T02:55:22;102660.13;;;11.48;16.96
13478;BME280;12598;62.382;17.344;2023-12-07T02:56:24;102666.31;;;11.48;17.03
13478;BME280;12598;62.382;17.344;2023-12-07T02:57:26;102663.66;;;11.48;16.68
13478;BME280;12598;62.382;17.344;2023-12-07T02:58:27;102657.88;;;11.37;16.56
13478;BME280;12598;62.382;17.344;2023-12-07T02:59:29;102666.31;;;11.48;16.56
13478;BME280;12598;62.382;17.344;2023-12-07T03:00:31;102671.59;;;11.48;16.27
13478;BME280;12598;62.382;17.344;2023-12-07T03:01:33;102660.16;;;11.46;16.28
13478;BME280;12598;62.382;17.344;2023-12-07T03:02:36;102667.19;;;11.47;16.34
13478;BME280;12598;62.382;17.344;2023-12-07T03:03:38;102655.06;;;11.42;16.47
13478;BME280;12598;62.382;17.344;2023-12-07T03:04:42;102669.84;;;11.47;16.68
13478;BME280;12598;62.382;17.344;2023-12-07T03:05:44;102662.72;;;11.49;16.22
13478;BME280;12598;62.382;17.344;2023-12-07T03:06:46;102665.41;;;11.48;16.86
13478;BME280;12598;62.382;17.344;2023-12-07T03:07:47;102656.66;;;11.46;16.70
13478;BME280;12598;62.382;17.344;2023-12-07T03:08:49;102661.09;;;11.45;16.57
13478;BME280;12598;62.382;17.344;2023-12-07T03:09:51;102648.88;;;11.41;16.36
13478;BME280;12598;62.382;17.344;2023-12-07T03:10:53;102657.53;;;11.46;16.99
13478;BME280;12598;62.382;17.344;2023-12-07T03:11:54;102661.09;;;11.45;16.89
13478;BME280;12598;62.382;17.344;2023-12-07T03:12:56;102657.53;;;11.46;16.63
13478;BME280;12598;62.382;17.344;2023-12-07T03:13:58;102662.81;;;11.46;16.82
13478;BME280;12598;62.382;17.344;2023-12-07T03:15:00;102642.00;;;11.37;16.59
13478;BME280;12598;62.382;17.344;2023-12-07T03:16:07;102651.41;;;11.44;16.68
13478;BME280;12598;62.382;17.344;2023-12-07T03:17:09;102649.56;;;11.46;16.85
13478;BME280;12598;62.382;17.344;2023-12-07T03:18:10;102651.38;;;11.46;17.02
13478;BME280;12598;62.382;17.344;2023-12-07T03:19:12;102650.50;;;11.45;16.85
13478;BME280;12598;62.382;17.344;2023-12-07T03:20:14;102636.66;;;11.39;16.43
13478;BME280;12598;62.382;17.344;2023-12-07T03:21:16;102644.34;;;11.45;17.04
13478;BME280;12598;62.382;17.344;2023-12-07T03:22:18;102648.78;;;11.44;16.71
13478;BME280;12598;62.382;17.344;2023-12-07T03:23:20;102638.41;;;11.38;16.68
13478;BME280;12598;62.382;17.344;2023-12-07T03:24:22;102639.91;;;11.45;17.01
13478;BME280;12598;62.382;17.344;2023-12-07T03:25:24;102648.78;;;11.44;16.97
13478;BME280;12598;62.382;17.344;2023-12-07T03:26:26;102627.03;;;11.36;16.64
13478;BME280;12598;62.382;17.344;2023-12-07T03:27:28;102635.72;;;11.40;16.84
13478;BME280;12598;62.382;17.344;2023-12-07T03:28:30;102635.53;;;11.44;16.50
13478;BME280;12598;62.382;17.344;2023-12-07T03:29:32;102640.91;;;11.43;17.00
13478;BME280;12598;62.382;17.344;2023-12-07T03:30:34;102642.63;;;11.44;17.03
13478;BME280;12598;62.382;17.344;2023-12-07T03:31:36;102647.03;;;11.43;16.28
13478;BME280;12598;62.382;17.344;2023-12-07T03:32:37;102640.03;;;11.42;16.52
13478;BME280;12598;62.382;17.344;2023-12-07T03:33:41;102641.81;;;11.42;17.05
13478;BME280;12598;62.382;17.344;2023-12-07T03:34:43;102643.47;;;11.44;16.32
13478;BME280;12598;62.382;17.344;2023-12-07T03:35:45;102640.81;;;11.44;16.97
13478;BME280;12598;62.382;17.344;2023-12-07T03:36:48;102637.31;;;11.44;16.39
13478;BME280;12598;62.382;17.344;2023-12-07T03:37:50;102643.47;;;11.44;16.37
13478;BME280;12598;62.382;17.344;2023-12-07T03:38:51;102635.59;;;11.43;16.43
13478;BME280;12598;62.382;17.344;2023-12-07T03:39:53;102628.75;;;11.37;16.82
13478;BME280;12598;62.382;17.344;2023-12-07T03:40:55;102640.16;;;11.39;17.01
13478;BME280;12598;62.382;17.344;2023-12-07T03:41:57;102647.00;;;11.45;16.58
13478;BME280;12598;62.382;17.344;2023-12-07T03:42:59;102638.28;;;11.41;17.04
13478;BME280;12598;62.382;17.344;2023-12-07T03:44:01;102645.19;;;11.45;16.46
13478;BME280;12598;62.382;17.344;2023-12-07T03:45:03;102642.66;;;11.42;17.10
13478;BME280;12598;62.382;17.344;2023-12-07T03:46:06;102649.66;;;11.45;17.21
13478;BME280;12598;62.382;17.344;2023-12-07T03:47:08;102654.06;;;11.44;16.49
13478;BME280;12598;62.382;17.344;2023-12-07T03:48:10;102654.06;;;11.44;16.94
13478;BME280;12598;62.382;17.344;2023-12-07T03:49:12;102646.19;;;11.43;16.52
13478;BME280;12598;62.382;17.344;2023-12-07T03:50:14;102651.41;;;11.44;16.69
13478;BME280;12598;62.382;17.344;2023-12-07T03:51:16;102643.47;;;11.44;16.60
13478;BME280;12598;62.382;17.344;2023-12-07T03:52:18;102643.47;;;11.44;16.79
13478;BME280;12598;62.382;17.344;2023-12-07T03:53:20;102646.06;;;11.46;16.91
13478;BME280;12598;62.382;17.344;2023-12-07T03:54:22;102635.78;;;11.38;16.73
13478;BME280;12598;62.382;17.344;2023-12-07T03:55:23;102637.38;;;11.42;16.85
13478;BME280;12598;62.382;17.344;2023-12-07T03:56:27;102649.56;;;11.46;16.59
13478;BME280;12598;62.382;17.344;2023-12-07T03:57:30;102652.13;;;11.49;16.79
13478;BME280;12598;62.382;17.344;2023-12-07T03:58:32;102651.22;;;11.50;16.58
13478;BME280;12598;62.382;17.344;2023-12-07T03:59:36;102649.47;;;11.49;17.12
13478;BME280;12598;62.382;17.344;2023-12-07T04:00:38;102648.56;;;11.50;16.85
13478;BME280;12598;62.382;17.344;2023-12-07T04:01:40;102652.00;;;11.52;16.94
13478;BME280;12598;62.382;17.344;2023-12-07T04:02:42;102660.88;;;11.51;17.10
13478;BME280;12598;62.382;17.344;2023-12-07T04:03:43;102656.44;;;11.52;16.89
13478;BME280;12598;62.382;17.344;2023-12-07T04:04:46;102658.16;;;11.53;16.51
13478;BME280;12598;62.382;17.344;2023-12-07T04:05:47;102657.31;;;11.52;17.03
13478;BME280;12598;62.382;17.344;2023-12-07T04:06:49;102653.72;;;11.53;16.47
13478;BME280;12598;62.382;17.344;2023-12-07T04:07:51;102658.16;;;11.53;16.48
13478;BME280;12598;62.382;17.344;2023-12-07T04:08:53;102655.47;;;11.54;17.02
13478;BME280;12598;62.382;17.344;2023-12-07T04:09:55;102659.06;;;11.52;16.72
13478;BME280;12598;62.382;17.344;2023-12-07T04:10:59;102669.56;;;11.55;17.11
13478;BME280;12598;62.382;17.344;2023-12-07T04:12:00;102666.91;;;11.55;16.99
13478;BME280;12598;62.382;17.344;2023-12-07T04:13:02;102666.06;;;11.54;16.44
13478;BME280;12598;62.382;17.344;2023-12-07T04:14:04;102665.16;;;11.55;16.84
13478;BME280;12598;62.382;17.344;2023-12-07T04:15:07;102662.53;;;11.55;16.40
13478;BME280;12598;62.382;17.344;2023-12-07T04:16:09;102663.38;;;11.56;16.98
13478;BME280;12598;62.382;17.344;2023-12-07T04:17:11;102671.25;;;11.57;16.51
13478;BME280;12598;62.382;17.344;2023-12-07T04:18:13;102645.28;;;11.44;16.78
13478;BME280;12598;62.382;17.344;2023-12-07T04:19:15;102651.41;;;11.44;16.80
13478;BME280;12598;62.382;17.344;2023-12-07T04:20:17;102664.25;;;11.56;17.10
13478;BME280;12598;62.382;17.344;2023-12-07T04:21:19;102662.41;;;11.58;16.41
13478;BME280;12598;62.382;17.344;2023-12-07T04:22:21;102664.25;;;11.56;16.46
13478;BME280;12598;62.382;17.344;2023-12-07T04:23:23;102666.09;;;11.53;17.12
13478;BME280;12598;62.382;17.344;2023-12-07T04:24:25;102672.13;;;11.58;16.77
13478;BME280;12598;62.382;17.344;2023-12-07T04:25:27;102675.63;;;11.58;17.03
13478;BME280;12598;62.382;17.344;2023-12-07T04:26:29;102680.94;;;11.58;16.49
13478;BME280;12598;62.382;17.344;2023-12-07T04:27:32;102679.22;;;11.57;16.96
13478;BME280;12598;62.382;17.344;2023-12-07T04:28:33;102677.41;;;11.58;16.62
13478;BME280;12598;62.382;17.344;2023-12-07T04:29:35;102688.88;;;11.58;16.67
13478;BME280;12598;62.382;17.344;2023-12-07T04:30:37;102682.72;;;11.58;16.67
13478;BME280;12598;62.382;17.344;2023-12-07T04:31:39;102678.28;;;11.58;17.10
13478;BME280;12598;62.382;17.344;2023-12-07T04:32:41;102674.00;;;11.54;16.60
13478;BME280;12598;62.382;17.344;2023-12-07T04:33:43;102678.28;;;11.58;16.97
13478;BME280;12598;62.382;17.344;2023-12-07T04:34:45;102684.50;;;11.57;16.41
13478;BME280;12598;62.382;17.344;2023-12-07T04:35:47;102681.06;;;11.54;16.68
13478;BME280;12598;62.382;17.344;2023-12-07T04:36:49;102681.88;;;11.57;16.91
13478;BME280;12598;62.382;17.344;2023-12-07T04:37:51;102688.00;;;11.58;17.02
13478;BME280;12598;62.382;17.344;2023-12-07T04:38:52;102682.72;;;11.58;17.16
13478;BME280;12598;62.382;17.344;2023-12-07T04:39:54;102682.72;;;11.58;16.51
13478;BME280;12598;62.382;17.344;2023-12-07T04:40:56;102676.56;;;11.57;17.08
13478;BME280;12598;62.382;17.344;2023-12-07T04:41:58;102673.19;;;11.52;16.74
13478;BME280;12598;62.382;17.344;2023-12-07T04:43:00;102677.41;;;11.58;16.67
13478;BME280;12598;62.382;17.344;2023-12-07T04:44:02;102673.03;;;11.57;16.87
13478;BME280;12598;62.382;17.344;2023-12-07T04:45:04;102674.03;;;11.53;16.80
13478;BME280;12598;62.382;17.344;2023-12-07T04:46:06;102678.34;;;11.57;16.45
13478;BME280;12598;62.382;17.344;2023-12-07T04:47:08;102680.97;;;11.57;16.87
13478;BME280;12598;62.382;17.344;2023-12-07T04:48:10;102683.72;;;11.55;16.88
13478;BME280;12598;62.382;17.344;2023-12-07T04:49:12;102688.09;;;11.56;17.25
13478;BME280;12598;62.382;17.344;2023-12-07T04:50:14;102677.63;;;11.52;16.78
13478;BME280;12598;62.382;17.344;2023-12-07T04:51:16;102671.63;;;11.47;17.05
13478;BME280;12598;62.382;17.344;2023-12-07T04:52:17;102687.22;;;11.56;16.36
13478;BME280;12598;62.382;17.344;2023-12-07T04:53:21;102687.25;;;11.54;16.53
13478;BME280;12598;62.382;17.344;2023-12-07T04:54:22;102689.00;;;11.55;17.05
13478;BME280;12598;62.382;17.344;2023-12-07T04:55:24;102688.16;;;11.53;16.95
13478;BME280;12598;62.382;17.344;2023-12-07T04:56:26;102680.44;;;11.47;16.94
13478;BME280;12598;62.382;17.344;2023-12-07T04:57:28;102689.00;;;11.55;16.78
13478;BME280;12598;62.382;17.344;2023-12-07T04:58:30;102689.91;;;11.54;16.99
13478;BME280;12598;62.382;17.344;2023-12-07T04:59:31;102678.63;;;11.49;16.89
13478;BME280;12598;62.382;17.344;2023-12-07T05:00:33;102673.38;;;11.48;16.59
13478;BME280;12598;62.382;17.344;2023-12-07T05:01:36;102688.09;;;11.55;17.02
13478;BME280;12598;62.382;17.344;2023-12-07T05:02:38;102689.00;;;11.55;16.51
13478;BME280;12598;62.382;17.344;2023-12-07T05:03:40;102689.00;;;11.55;16.87
13478;BME280;12598;62.382;17.344;2023-12-07T05:04:42;102687.25;;;11.54;16.86
13478;BME280;12598;62.382;17.344;2023-12-07T05:05:44;102681.94;;;11.54;17.31
13478;BME280;12598;62.382;17.344;2023-12-07T05:06:46;102684.59;;;11.54;16.59
13478;BME280;12598;62.382;17.344;2023-12-07T05:07:47;102685.44;;;11.55;17.08
13478;BME280;12598;62.382;17.344;2023-12-07T05:08:49;102697.84;;;11.54;17.15
13478;BME280;12598;62.382;17.344;2023-12-07T05:09:51;102684.59;;;11.54;17.17
13478;BME280;12598;62.382;17.344;2023-12-07T05:10:53;102689.91;;;11.54;16.55
13478;BME280;12598;62.382;17.344;2023-12-07T05:11:55;102674.28;;;11.47;16.86
13478;BME280;12598;62.382;17.344;2023-12-07T05:12:56;102684.66;;;11.53;17.05
13478;BME280;12598;62.382;17.344;2023-12-07T05:13:59;102693.41;;;11.55;16.45
13478;BME280;12598;62.382;17.344;2023-12-07T05:15:01;102689.03;;;11.54;16.54
13478;BME280;12598;62.382;17.344;2023-12-07T05:16:05;102682.78;;;11.55;16.49
13478;BME280;12598;62.382;17.344;2023-12-07T05:17:07;102681.94;;;11.54;16.95
13478;BME280;12598;62.382;17.344;2023-12-07T05:18:09;102683.72;;;11.55;16.75
13478;BME280;12598;62.382;17.344;2023-12-07T05:19:11;102689.03;;;11.54;16.49
13478;BME280;12598;62.382;17.344;2023-12-07T05:20:13;102681.94;;;11.54;16.84
13478;BME280;12598;62.382;17.344;2023-12-07T05:21:15;102687.25;;;11.54;16.53
13478;BME280;12598;62.382;17.344;2023-12-07T05:22:17;102674.16;;;11.50;16.66
13478;BME280;12598;62.382;17.344;2023-12-07T05:23:18;102675.22;;;11.46;17.05
13478;BME280;12598;62.382;17.344;2023-12-07T05:24:20;102683.72;;;11.55;17.23
13478;BME280;12598;62.382;17.344;2023-12-07T05:25:22;102685.53;;;11.53;16.59
13478;BME280;12598;62.382;17.344;2023-12-07T05:26:24;102683.72;;;11.55;16.84